Time;durP1;ratioP1;P1;durP2;ratioP2;P2;SDS_P1;SDS_P2;PMS_P1;PMS_P2;Temp;Humidity;BMP_temperature;BMP_pressure;BME280_temperature;BME280_humidity;BME280_pressure;Samples;Min_cycle;Max_cycle;Signal;HPM_P1;HPM_P2
2022/11/15 00:00:22;;;;;;;30.20;23.00;;;7.00;99.90;;;;;;5046012;28;20048;-76
2022/11/15 00:02:47;;;;;;;43.50;24.15;;;6.90;99.90;;;;;;5046461;28;20045;-76
2022/11/15 00:05:13;;;;;;;27.70;20.98;;;6.80;99.90;;;;;;5045660;28;20048;-76
2022/11/15 00:07:39;;;;;;;31.67;22.38;;;6.90;99.90;;;;;;5045228;28;20048;-75
2022/11/15 00:10:05;;;;;;;29.63;23.73;;;6.80;99.90;;;;;;5047475;28;20400;-75
2022/11/15 00:12:31;;;;;;;30.15;21.75;;;6.80;99.90;;;;;;5046948;28;20045;-75
2022/11/15 00:14:56;;;;;;;30.75;23.02;;;6.90;99.90;;;;;;5044060;28;20477;-75
2022/11/15 00:17:22;;;;;;;30.38;22.08;;;6.90;99.90;;;;;;5029351;28;20033;-75
2022/11/15 00:19:49;;;;;;;30.75;23.42;;;6.90;99.90;;;;;;5035324;28;20045;-75
2022/11/15 00:22:14;;;;;;;35.42;24.80;;;6.80;99.90;;;;;;5046186;28;20056;-76
2022/11/15 00:24:40;;;;;;;33.58;22.20;;;7.00;99.90;;;;;;5044644;28;20419;-76
2022/11/15 00:27:05;;;;;;;30.88;22.48;;;7.00;99.90;;;;;;5045474;28;20041;-74
2022/11/15 00:29:31;;;;;;;28.55;22.33;;;7.10;99.90;;;;;;5045194;28;20561;-76
2022/11/15 00:31:57;;;;;;;29.20;20.30;;;7.10;99.90;;;;;;5044984;28;20053;-76
2022/11/15 00:34:22;;;;;;;32.15;23.65;;;7.00;99.90;;;;;;5046272;28;20384;-75
2022/11/15 00:36:48;;;;;;;27.98;20.80;;;7.00;99.90;;;;;;5045738;28;20048;-76
2022/11/15 00:39:13;;;;;;;29.55;19.67;;;7.10;99.90;;;;;;5045073;28;20134;-76
2022/11/15 00:41:39;;;;;;;31.35;22.45;;;7.10;99.90;;;;;;5044965;28;20146;-76
2022/11/15 00:44:04;;;;;;;32.03;21.58;;;7.20;99.90;;;;;;5044458;28;20037;-74
2022/11/15 00:46:30;;;;;;;29.73;20.58;;;7.30;99.90;;;;;;5035655;28;20048;-76
2022/11/15 00:48:56;;;;;;;30.08;22.40;;;7.30;99.90;;;;;;5024593;28;20041;-75
2022/11/15 00:51:21;;;;;;;27.98;20.23;;;7.30;99.90;;;;;;5024778;28;20272;-75
2022/11/15 00:53:47;;;;;;;25.60;19.48;;;7.20;99.90;;;;;;5024769;28;20069;-75
2022/11/15 00:56:13;;;;;;;29.88;21.42;;;7.40;99.90;;;;;;5024724;28;20052;-76
2022/11/15 00:58:38;;;;;;;26.33;19.98;;;7.20;99.90;;;;;;5024194;28;20052;-75
2022/11/15 01:01:09;;;;;;;29.63;21.42;;;7.20;99.90;;;;;;5026248;28;20053;-76
2022/11/15 01:03:36;;;;;;;27.05;20.45;;;7.20;99.90;;;;;;5024862;28;20045;-76
2022/11/15 01:06:02;;;;;;;26.85;20.25;;;7.20;99.90;;;;;;5024476;28;20100;-75
2022/11/15 01:08:28;;;;;;;31.40;21.95;;;7.20;99.90;;;;;;5007994;28;20080;-77
2022/11/15 01:10:54;;;;;;;27.90;21.98;;;7.20;99.90;;;;;;5024022;28;20069;-75
2022/11/15 01:13:19;;;;;;;27.27;21.30;;;7.20;99.90;;;;;;5007323;28;20400;-75
2022/11/15 01:15:45;;;;;;;28.98;21.08;;;7.30;99.90;;;;;;5006730;28;20087;-75
2022/11/15 01:18:11;;;;;;;30.20;23.85;;;7.20;99.90;;;;;;5025250;28;20041;-75
2022/11/15 01:20:40;;;;;;;30.45;22.42;;;7.20;99.90;;;;;;5024053;28;20493;-75
2022/11/15 01:23:06;;;;;;;33.03;24.85;;;7.10;99.90;;;;;;5007613;28;20081;-76
2022/11/15 01:25:32;;;;;;;34.55;24.63;;;7.10;99.90;;;;;;5024515;28;20346;-76
2022/11/15 01:27:57;;;;;;;30.95;24.02;;;7.10;99.90;;;;;;5025085;28;20233;-75
2022/11/15 01:30:23;;;;;;;33.08;22.65;;;7.00;99.90;;;;;;5024833;28;20033;-76
2022/11/15 01:32:48;;;;;;;31.58;24.27;;;7.00;99.90;;;;;;5025019;28;20092;-76
2022/11/15 01:35:14;;;;;;;31.27;23.75;;;7.00;99.90;;;;;;5024253;28;20408;-74
2022/11/15 01:37:40;;;;;;;31.88;22.92;;;6.90;99.90;;;;;;5023826;28;20045;-75
2022/11/15 01:40:06;;;;;;;33.35;23.48;;;6.90;99.90;;;;;;5007859;28;20048;-75
2022/11/15 01:42:31;;;;;;;32.08;24.48;;;6.80;99.90;;;;;;5025840;28;20615;-75
2022/11/15 01:44:57;;;;;;;33.35;25.38;;;6.80;99.90;;;;;;5005988;28;20042;-75
2022/11/15 01:47:29;;;;;;;31.58;24.40;;;6.80;99.90;;;;;;5024385;28;20045;-76
2022/11/15 01:50:09;;;;;;;30.45;21.65;;;6.90;99.90;;;;;;5042934;28;20041;-76
2022/11/15 01:52:35;;;;;;;41.70;23.50;;;6.90;99.90;;;;;;5045362;28;20045;-76
2022/11/15 01:55:25;;;;;;;28.88;22.80;;;6.80;99.90;;;;;;5044201;28;20036;-75
2022/11/15 01:57:58;;;;;;;30.08;22.20;;;7.00;99.90;;;;;;5042958;28;20045;-75
2022/11/15 02:00:23;;;;;;;31.58;22.73;;;7.00;99.90;;;;;;5043512;28;20120;-75
2022/11/15 02:02:50;;;;;;;29.00;22.90;;;7.00;99.90;;;;;;5043649;28;20091;-75
2022/11/15 02:05:15;;;;;;;32.60;24.33;;;6.90;99.90;;;;;;5044759;28;20041;-75
2022/11/15 02:07:42;;;;;;;38.00;24.55;;;6.90;99.90;;;;;;5043255;28;20102;-75
2022/11/15 02:12:45;;;;;;;32.63;22.17;;;6.90;99.90;;;;;;5006518;28;20053;-76
2022/11/15 02:15:11;;;;;;;27.85;21.80;;;7.00;99.90;;;;;;4990728;28;20049;-76
2022/11/15 02:18:07;;;;;;;32.60;22.95;;;6.80;99.90;;;;;;5008394;28;20103;-76
2022/11/15 02:20:46;;;;;;;36.83;24.00;;;6.80;99.90;;;;;;5009048;28;20050;-75
2022/11/15 02:23:31;;;;;;;32.67;23.55;;;6.90;99.90;;;;;;4997699;28;20619;-76
2022/11/15 02:26:34;;;;;;;33.08;23.52;;;6.90;99.90;;;;;;4994967;28;20057;-77
2022/11/15 02:29:10;;;;;;;34.08;24.08;;;6.80;99.90;;;;;;4994120;28;20053;-75
2022/11/15 02:31:54;;;;;;;33.65;24.25;;;6.80;99.90;;;;;;5013023;28;20065;-76
2022/11/15 02:34:35;;;;;;;35.72;25.40;;;6.90;99.90;;;;;;4995414;28;20116;-76
2022/11/15 02:37:04;;;;;;;36.60;22.42;;;6.80;99.90;;;;;;4995535;28;20177;-76
2022/11/15 02:39:48;;;;;;;38.03;23.50;;;6.90;99.90;;;;;;4994388;28;20122;-76
2022/11/15 02:45:09;;;;;;;35.25;22.60;;;6.90;99.90;;;;;;4995046;28;20053;-75
2022/11/15 02:47:42;;;;;;;34.50;22.70;;;6.90;99.90;;;;;;4995735;28;20691;-74
2022/11/15 02:50:15;;;;;;;37.15;23.67;;;6.80;99.90;;;;;;5012098;28;20037;-76
2022/11/15 02:52:44;;;;;;;40.45;25.33;;;6.90;99.90;;;;;;4994895;28;20369;-75
2022/11/15 02:55:31;;;;;;;37.72;25.17;;;6.80;99.90;;;;;;5012612;28;20060;-76
2022/11/15 02:58:21;;;;;;;39.17;24.08;;;6.90;99.90;;;;;;4991307;28;20054;-76
2022/11/15 03:01:12;;;;;;;35.10;23.60;;;6.90;99.90;;;;;;4993330;28;20049;-77
2022/11/15 03:04:06;;;;;;;39.33;25.40;;;6.80;99.90;;;;;;5010842;28;20088;-77
2022/11/15 03:06:39;;;;;;;39.05;23.65;;;7.00;99.90;;;;;;5012781;28;20121;-76
2022/11/15 03:09:12;;;;;;;39.88;26.25;;;7.00;99.90;;;;;;5011528;28;20443;-76
2022/11/15 03:11:46;;;;;;;36.13;23.90;;;6.90;99.90;;;;;;4993817;28;20479;-75
2022/11/15 03:14:40;;;;;;;37.88;24.02;;;7.00;99.90;;;;;;5009781;28;20585;-76
2022/11/15 03:17:08;;;;;;;38.80;25.73;;;6.80;99.90;;;;;;5012174;28;20058;-75
2022/11/15 03:19:52;;;;;;;42.33;26.52;;;6.90;99.90;;;;;;5011900;28;20396;-76
2022/11/15 03:22:22;;;;;;;37.45;23.27;;;7.00;99.90;;;;;;4995664;28;20053;-77
2022/11/15 03:24:53;;;;;;;36.30;23.42;;;6.90;99.90;;;;;;5010729;28;20254;-74
2022/11/15 03:27:25;;;;;;;41.08;26.13;;;7.00;99.90;;;;;;5013198;28;20052;-76
2022/11/15 03:29:56;;;;;;;43.90;25.17;;;7.10;99.90;;;;;;5009316;28;20048;-77
2022/11/15 03:32:26;;;;;;;44.35;24.73;;;6.90;99.90;;;;;;5012617;28;20045;-75
2022/11/15 03:35:06;;;;;;;46.40;24.98;;;7.10;99.90;;;;;;5011842;28;20042;-76
2022/11/15 03:37:46;;;;;;;47.20;29.23;;;7.20;99.90;;;;;;5013176;28;20128;-76
2022/11/15 03:40:12;;;;;;;46.67;25.02;;;7.00;99.90;;;;;;5012837;28;20404;-77
2022/11/15 03:42:55;;;;;;;42.58;25.77;;;7.10;99.90;;;;;;4997641;28;20064;-77
2022/11/15 03:45:41;;;;;;;38.72;23.17;;;6.90;99.90;;;;;;5011370;28;20050;-75
2022/11/15 03:48:18;;;;;;;42.47;23.27;;;7.20;99.90;;;;;;5012147;28;20034;-75
2022/11/15 03:50:46;;;;;;;44.75;26.77;;;7.00;99.90;;;;;;5010991;28;20049;-75
2022/11/15 03:53:12;;;;;;;52.47;27.88;;;6.90;99.90;;;;;;4994394;28;20041;-75
2022/11/15 03:55:38;;;;;;;50.75;27.55;;;7.00;99.90;;;;;;5011575;28;20046;-76
2022/11/15 03:58:04;;;;;;;46.55;27.20;;;7.30;99.90;;;;;;5011811;28;20053;-75
2022/11/15 04:00:29;;;;;;;60.53;31.60;;;7.10;99.90;;;;;;4992778;28;20049;-75
2022/11/15 04:02:55;;;;;;;43.58;24.52;;;7.40;99.90;;;;;;5010815;28;20137;-76
2022/11/15 04:05:21;;;;;;;49.33;28.83;;;7.40;99.90;;;;;;5011212;28;20041;-76
2022/11/15 04:07:46;;;;;;;54.30;29.42;;;7.10;99.90;;;;;;4993417;28;20092;-76
2022/11/15 04:10:12;;;;;;;55.78;28.23;;;7.10;99.90;;;;;;5010914;28;20046;-77
2022/11/15 04:12:43;;;;;;;63.92;30.60;;;7.50;99.90;;;;;;5009942;28;20046;-76
2022/11/15 04:15:12;;;;;;;;;;;7.50;99.90;;;;;;4993375;28;20418;-74
2022/11/15 04:17:44;;;;;;;54.67;28.92;;;7.20;99.90;;;;;;4992491;28;19964;-75
2022/11/15 04:26:11;;;;;;;66.25;30.30;;;7.30;99.90;;;;;;5012231;28;20047;-76
2022/11/15 04:31:21;;;;;;;60.78;30.90;;;7.60;99.90;;;;;;4993600;28;20104;-77
2022/11/15 04:33:47;;;;;;;45.65;27.33;;;7.60;99.90;;;;;;4993073;28;20588;-76
2022/11/15 04:38:57;;;;;;;52.38;27.73;;;7.30;99.90;;;;;;4993608;28;20054;-76
2022/11/15 04:41:22;;;;;;;49.78;27.95;;;7.60;99.90;;;;;;5010955;28;20178;-77
2022/11/15 04:43:48;;;;;;;50.63;27.80;;;7.70;99.90;;;;;;4992214;28;20425;-75
2022/11/15 04:46:13;;;;;;;54.50;30.23;;;7.30;99.90;;;;;;5009531;28;20053;-76
2022/11/15 04:48:39;;;;;;;55.88;29.02;;;7.60;99.90;;;;;;4975516;28;20046;-75
2022/11/15 04:51:05;;;;;;;59.25;30.17;;;7.30;99.90;;;;;;5010519;28;20041;-76
2022/11/15 04:53:30;;;;;;;58.97;29.02;;;7.80;99.90;;;;;;4993046;28;20069;-76
2022/11/15 04:55:56;;;;;;;62.47;30.92;;;7.70;99.90;;;;;;4976224;28;20054;-76
2022/11/15 04:58:21;;;;;;;63.00;33.03;;;7.40;99.90;;;;;;5009202;28;20053;-77
2022/11/15 05:00:47;;;;;;;66.68;34.00;;;7.50;99.90;;;;;;5009982;28;20445;-75
2022/11/15 05:05:58;;;;;;;66.90;35.88;;;8.00;99.90;;;;;;5009812;28;20099;-75
2022/11/15 05:08:24;;;;;;;64.70;35.15;;;8.10;99.90;;;;;;5010221;28;20046;-75
2022/11/15 05:10:50;;;;;;;60.47;33.22;;;7.90;99.90;;;;;;5009466;28;20107;-75
2022/11/15 05:13:16;;;;;;;67.80;35.35;;;7.70;99.90;;;;;;4990565;28;20136;-76
2022/11/15 05:15:42;;;;;;;68.80;33.25;;;7.60;99.90;;;;;;4987571;28;20052;-76
2022/11/15 05:18:07;;;;;;;75.95;35.55;;;8.20;99.90;;;;;;4972050;28;20050;-75
2022/11/15 05:20:33;;;;;;;82.53;36.33;;;7.70;99.90;;;;;;4993115;28;20445;-75
2022/11/15 05:22:59;;;;;;;80.63;37.50;;;8.30;99.90;;;;;;4986067;28;20497;-75
2022/11/15 05:25:25;;;;;;;69.95;35.92;;;8.30;99.90;;;;;;4985109;28;20584;-76
2022/11/15 05:27:51;;;;;;;72.05;33.83;;;7.70;99.90;;;;;;4989266;28;20053;-77
2022/11/15 05:30:17;;;;;;;71.63;33.40;;;8.40;99.90;;;;;;4971135;28;20065;-75
2022/11/15 05:32:43;;;;;;;76.13;35.58;;;8.40;99.90;;;;;;4987843;28;20137;-76
2022/11/15 05:35:15;;;;;;;83.97;37.30;;;7.90;99.90;;;;;;5005998;28;20072;-76
2022/11/15 05:37:41;;;;;;;70.93;34.08;;;8.50;99.90;;;;;;4987748;28;20073;-75
2022/11/15 05:40:07;;;;;;;68.53;35.35;;;8.30;99.90;;;;;;4988141;28;20489;-76
2022/11/15 05:42:33;;;;;;;67.43;36.33;;;8.00;99.90;;;;;;5008862;28;20112;-76
2022/11/15 05:45:01;;;;;;;75.15;36.15;;;8.70;99.90;;;;;;5004803;28;20547;-76
2022/11/15 05:47:30;;;;;;;66.15;33.55;;;8.00;99.90;;;;;;5004998;28;20133;-75
2022/11/15 05:49:56;;;;;;;66.32;34.70;;;8.70;99.90;;;;;;5004885;28;20050;-77
2022/11/15 05:52:27;;;;;;;77.28;36.92;;;8.60;99.90;;;;;;5005348;28;20090;-75
2022/11/15 05:54:53;;;;;;;85.07;39.08;;;8.40;99.90;;;;;;5005483;28;20046;-76
2022/11/15 05:57:19;;;;;;;80.32;36.63;;;9.00;99.90;;;;;;5005149;28;20041;-75
2022/11/15 05:59:45;;;;;;;82.25;39.05;;;9.00;99.90;;;;;;5003879;28;20639;-76
2022/11/15 06:02:11;;;;;;;81.28;38.40;;;8.30;99.90;;;;;;5005470;28;20038;-75
2022/11/15 06:04:36;;;;;;;87.28;38.75;;;8.40;99.90;;;;;;5005327;28;20073;-75
2022/11/15 06:07:02;;;;;;;91.32;41.35;;;9.10;99.90;;;;;;5006338;28;20109;-75
2022/11/15 06:09:28;;;;;;;91.07;40.30;;;9.30;99.90;;;;;;4987699;28;20092;-76
2022/11/15 06:11:53;;;;;;;96.13;42.92;;;9.30;99.90;;;;;;4993818;28;20393;-74
2022/11/15 06:14:19;;;;;;;114.22;48.58;;;8.50;99.90;;;;;;4986580;28;20269;-74
2022/11/15 06:16:45;;;;;;;95.05;40.03;;;8.80;99.90;;;;;;5005039;28;20038;-75
2022/11/15 06:19:10;;;;;;;95.60;42.45;;;8.80;99.90;;;;;;4987930;28;20451;-74
2022/11/15 06:21:36;;;;;;;105.20;45.28;;;8.50;99.90;;;;;;5004880;28;20030;-75
2022/11/15 06:24:02;;;;;;;96.85;42.25;;;9.30;99.90;;;;;;4988055;28;20077;-74
2022/11/15 06:26:27;;;;;;;96.93;41.90;;;9.40;99.90;;;;;;4988769;28;20428;-74
2022/11/15 06:28:53;;;;;;;106.38;44.17;;;8.80;99.90;;;;;;4986229;28;20046;-75
2022/11/15 06:31:18;;;;;;;86.95;39.97;;;8.60;99.90;;;;;;4987315;28;20139;-75
2022/11/15 06:33:44;;;;;;;108.47;45.00;;;9.60;99.90;;;;;;4986727;28;20042;-75
2022/11/15 06:36:16;;;;;;;98.63;41.63;;;8.80;99.90;;;;;;5005229;28;20046;-75
2022/11/15 06:38:43;;;;;;;91.15;43.10;;;8.70;99.90;;;;;;5004620;28;20111;-75
2022/11/15 06:41:10;;;;;;;87.15;39.13;;;9.60;99.90;;;;;;4987189;28;20042;-75
2022/11/15 06:43:36;;;;;;;91.80;43.58;;;9.20;99.90;;;;;;5004625;28;20416;-77
2022/11/15 06:46:03;;;;;;;101.90;44.08;;;9.50;99.90;;;;;;5005626;28;20045;-75
2022/11/15 06:48:30;;;;;;;93.75;42.38;;;9.40;99.90;;;;;;5005314;28;20046;-75
2022/11/15 06:50:58;;;;;;;113.38;42.85;;;9.60;99.90;;;;;;5004401;28;20743;-75
2022/11/15 06:53:24;;;;;;;100.40;41.78;;;9.90;99.90;;;;;;4988028;28;20050;-75
2022/11/15 06:55:50;;;;;;;82.22;42.53;;;8.80;99.90;;;;;;4986496;28;20053;-75
2022/11/15 06:58:16;;;;;;;85.10;42.00;;;9.10;99.90;;;;;;5004218;28;20046;-75
2022/11/15 07:00:42;;;;;;;84.95;40.92;;;9.90;99.90;;;;;;4987182;28;20096;-75
2022/11/15 07:03:08;;;;;;;92.50;41.55;;;9.50;99.90;;;;;;5004886;28;20046;-76
2022/11/15 07:05:34;;;;;;;79.53;40.65;;;9.90;99.90;;;;;;5005187;28;20042;-76
2022/11/15 07:08:00;;;;;;;88.03;44.20;;;9.20;99.90;;;;;;5004717;28;20042;-76
2022/11/15 07:10:26;;;;;;;74.22;39.75;;;10.00;99.90;;;;;;5006331;28;20215;-74
2022/11/15 07:12:53;;;;;;;69.20;37.88;;;9.50;99.90;;;;;;5008291;28;20054;-75
2022/11/15 07:15:21;;;;;;;88.20;43.67;;;10.00;99.90;;;;;;4989895;28;20125;-75
2022/11/15 07:17:47;;;;;;;78.45;38.60;;;10.00;99.90;;;;;;4990587;28;20057;-75
2022/11/15 07:20:13;;;;;;;73.57;38.88;;;9.10;99.90;;;;;;5008402;28;20038;-75
2022/11/15 07:22:40;;;;;;;72.72;41.28;;;9.20;99.90;;;;;;5007803;28;20054;-75
2022/11/15 07:25:06;;;;;;;72.60;39.28;;;9.20;99.90;;;;;;5007829;28;20050;-76
2022/11/15 07:27:32;;;;;;;69.53;37.10;;;10.00;99.90;;;;;;5008209;28;20049;-75
2022/11/15 07:29:57;;;;;;;62.70;36.30;;;10.20;99.90;;;;;;4989296;28;20034;-75
2022/11/15 07:32:23;;;;;;;64.53;36.08;;;10.10;99.90;;;;;;4990292;28;20068;-75
2022/11/15 07:34:49;;;;;;;79.68;37.42;;;9.80;99.90;;;;;;5008065;28;20091;-75
2022/11/15 07:37:14;;;;;;;70.57;37.58;;;10.00;99.90;;;;;;4990093;28;20192;-75
2022/11/15 07:39:40;;;;;;;63.30;36.67;;;9.70;99.90;;;;;;5007682;28;20409;-75
2022/11/15 07:44:50;;;;;;;69.75;37.97;;;9.90;99.90;;;;;;5006611;28;20050;-75
2022/11/15 07:47:15;;;;;;;68.35;35.72;;;10.50;99.90;;;;;;5007822;28;20095;-75
2022/11/15 07:49:41;;;;;;;67.78;35.40;;;9.80;99.90;;;;;;5007480;28;20480;-75
2022/11/15 07:52:07;;;;;;;58.05;33.33;;;9.40;99.90;;;;;;5007601;28;20140;-76
2022/11/15 07:54:32;;;;;;;81.32;36.00;;;10.50;99.90;;;;;;5009385;28;20080;-75
2022/11/15 07:56:58;;;;;;;62.72;35.85;;;9.60;99.90;;;;;;4970842;28;20481;-76
2022/11/15 07:59:23;;;;;;;53.55;32.08;;;9.50;99.90;;;;;;4970561;28;20393;-76
2022/11/15 08:01:49;;;;;;;57.60;33.58;;;9.50;99.90;;;;;;4986472;28;20484;-75
2022/11/15 08:04:15;;;;;;;54.17;32.95;;;10.30;99.90;;;;;;4986743;28;20057;-74
2022/11/15 08:06:40;;;;;;;61.30;36.25;;;9.70;99.90;;;;;;4988055;28;20042;-75
2022/11/15 08:09:06;;;;;;;53.30;32.50;;;10.30;99.90;;;;;;4987986;28;20046;-75
2022/11/15 08:11:32;;;;;;;53.20;32.20;;;9.70;99.90;;;;;;4986801;28;20074;-75
2022/11/15 08:13:58;;;;;;;59.38;35.50;;;10.40;99.90;;;;;;4985221;28;20173;-75
2022/11/15 08:16:24;;;;;;;46.33;31.38;;;10.40;99.90;;;;;;4986152;28;20042;-75
2022/11/15 08:18:49;;;;;;;57.03;32.40;;;10.60;99.90;;;;;;4986476;28;20046;-75
2022/11/15 08:21:18;;;;;;;48.47;32.97;;;10.40;99.90;;;;;;4987332;28;20464;-75
2022/11/15 08:23:44;;;;;;;50.35;29.98;;;9.90;99.90;;;;;;4987248;28;20046;-75
2022/11/15 08:26:10;;;;;;;47.97;29.48;;;10.00;99.90;;;;;;4992203;28;20365;-75
2022/11/15 08:28:35;;;;;;;47.75;31.77;;;10.60;99.90;;;;;;5005888;28;20034;-75
2022/11/15 08:31:02;;;;;;;51.05;31.30;;;10.00;99.90;;;;;;5007531;28;20130;-76
2022/11/15 08:33:28;;;;;;;45.03;30.27;;;10.10;99.90;;;;;;4989410;28;20100;-75
2022/11/15 08:35:57;;;;;;;43.35;30.48;;;10.80;99.90;;;;;;4972737;28;20073;-75
2022/11/15 08:38:23;;;;;;;51.00;29.83;;;10.50;99.90;;;;;;4989192;28;20079;-75
2022/11/15 08:40:50;;;;;;;39.13;29.58;;;10.90;99.90;;;;;;5006844;28;20120;-75
2022/11/15 08:43:16;;;;;;;47.70;29.48;;;10.50;99.90;;;;;;5006980;28;20157;-75
2022/11/15 08:45:42;;;;;;;46.25;31.90;;;10.10;99.90;;;;;;4990580;28;20049;-75
2022/11/15 08:48:07;;;;;;;41.13;27.90;;;10.90;99.90;;;;;;4989341;28;20483;-75
2022/11/15 08:50:33;;;;;;;41.55;29.00;;;10.40;99.90;;;;;;5006649;28;20046;-75
2022/11/15 08:53:08;;;;;;;35.53;27.65;;;10.40;99.90;;;;;;4988599;28;20041;-74
2022/11/15 08:55:36;;;;;;;35.28;26.95;;;10.30;99.90;;;;;;4989448;28;20050;-75
2022/11/15 08:58:02;;;;;;;43.55;27.23;;;11.00;99.90;;;;;;5005660;28;20049;-75
2022/11/15 09:00:28;;;;;;;37.95;26.65;;;10.90;99.90;;;;;;5006541;28;20069;-76
2022/11/15 09:02:54;;;;;;;39.22;25.73;;;11.00;99.90;;;;;;5006436;28;20041;-76
2022/11/15 09:05:19;;;;;;;38.72;26.20;;;10.40;99.90;;;;;;5006065;28;20049;-76
2022/11/15 09:07:45;;;;;;;35.70;26.30;;;11.20;99.90;;;;;;5005410;28;20057;-76
2022/11/15 09:10:11;;;;;;;39.42;25.95;;;10.50;99.90;;;;;;5006352;28;20484;-76
2022/11/15 09:12:36;;;;;;;38.88;25.55;;;10.80;99.90;;;;;;5005871;28;20049;-75
2022/11/15 09:15:03;;;;;;;35.58;25.00;;;11.10;99.90;;;;;;5005023;28;20140;-75
2022/11/15 09:17:30;;;;;;;33.00;23.20;;;11.20;99.90;;;;;;5004324;28;20184;-75
2022/11/15 09:19:56;;;;;;;36.70;24.33;;;10.60;99.90;;;;;;4988111;28;20442;-75
2022/11/15 09:22:21;;;;;;;34.35;25.35;;;10.80;99.90;;;;;;4988481;28;20046;-76
2022/11/15 09:24:47;;;;;;;36.05;25.42;;;11.10;99.90;;;;;;5004640;28;20125;-75
2022/11/15 09:27:13;;;;;;;31.48;23.52;;;10.70;99.90;;;;;;5005686;28;20046;-76
2022/11/15 09:29:38;;;;;;;35.30;24.83;;;10.70;99.90;;;;;;5004416;28;20053;-76
2022/11/15 09:32:05;;;;;;;36.13;24.10;;;11.20;99.90;;;;;;5006239;28;20042;-76
2022/11/15 09:34:30;;;;;;;33.70;23.05;;;10.70;99.90;;;;;;4988603;28;20044;-76
2022/11/15 09:36:56;;;;;;;33.13;22.67;;;11.30;99.90;;;;;;5008218;28;20050;-75
2022/11/15 09:39:22;;;;;;;37.63;25.58;;;10.80;99.90;;;;;;5006184;28;20404;-76
2022/11/15 09:41:56;;;;;;;37.85;22.45;;;10.90;99.90;;;;;;4988346;28;20131;-75
2022/11/15 09:44:54;;;;;;;32.53;22.52;;;10.90;99.90;;;;;;5004819;28;20046;-75
2022/11/15 09:47:20;;;;;;;34.88;24.63;;;11.50;99.90;;;;;;4987936;28;20072;-75
2022/11/15 09:49:50;;;;;;;44.88;26.00;;;11.40;99.90;;;;;;5005985;28;20128;-75
2022/11/15 09:52:17;;;;;;;34.40;22.60;;;11.00;99.90;;;;;;4973258;28;20046;-74
2022/11/15 09:54:50;;;;;;;32.17;23.67;;;11.50;99.90;;;;;;5008329;28;20056;-75
2022/11/15 09:57:41;;;;;;;28.98;20.15;;;11.60;99.90;;;;;;5007767;28;20081;-74
2022/11/15 10:00:16;;;;;;;30.65;20.95;;;11.60;99.90;;;;;;4982961;28;20066;-74
2022/11/15 10:03:00;;;;;;;32.80;21.23;;;11.30;99.90;;;;;;4990975;28;20115;-76
2022/11/15 10:05:26;;;;;;;28.10;18.90;;;11.40;99.90;;;;;;5005195;28;20160;-76
2022/11/15 10:08:21;;;;;;;32.95;19.52;;;11.60;99.90;;;;;;5004956;28;20049;-76
2022/11/15 10:10:55;;;;;;;32.05;19.73;;;11.40;99.90;;;;;;4987596;28;20416;-76
2022/11/15 10:13:33;;;;;;;26.95;18.48;;;11.70;99.90;;;;;;5005324;28;20067;-75
2022/11/15 10:16:27;;;;;;;29.42;20.02;;;11.70;99.90;;;;;;5005628;28;20046;-76
2022/11/15 10:19:20;;;;;;;28.15;20.02;;;11.70;99.90;;;;;;4983784;28;20363;-76
2022/11/15 10:21:54;;;;;;;24.27;19.70;;;11.40;99.90;;;;;;5005347;28;20046;-75
2022/11/15 10:24:27;;;;;;;28.42;20.50;;;11.60;99.90;;;;;;5005718;28;20456;-75
2022/11/15 10:26:54;;;;;;;33.97;20.48;;;11.50;99.90;;;;;;5004750;28;20038;-75
2022/11/15 10:29:22;;;;;;;27.42;21.13;;;11.30;99.90;;;;;;5003371;28;20049;-75
2022/11/15 10:31:48;;;;;;;28.00;19.05;;;11.70;99.90;;;;;;5005968;28;20034;-76
2022/11/15 10:34:19;;;;;;;31.27;19.67;;;11.40;99.90;;;;;;5005281;28;20046;-75
2022/11/15 10:36:56;;;;;;;27.40;19.52;;;11.30;99.90;;;;;;5005188;28;20057;-76
2022/11/15 10:39:22;;;;;;;30.40;22.52;;;11.60;99.90;;;;;;5005229;28;20033;-76
2022/11/15 10:41:48;;;;;;;28.88;19.98;;;11.50;99.90;;;;;;5004794;28;20092;-76
2022/11/15 10:44:17;;;;;;;33.08;21.30;;;11.30;99.90;;;;;;5004084;28;20046;-75
2022/11/15 10:46:46;;;;;;;29.90;19.38;;;11.30;99.90;;;;;;4991644;28;20049;-76
2022/11/15 10:49:28;;;;;;;24.23;17.57;;;11.50;99.90;;;;;;4991653;28;20091;-76
2022/11/15 10:51:56;;;;;;;25.58;18.65;;;11.50;99.90;;;;;;5008569;28;20296;-76
2022/11/15 10:54:43;;;;;;;23.48;17.05;;;11.40;99.90;;;;;;5001472;28;20069;-75
2022/11/15 10:57:39;;;;;;;24.75;17.77;;;11.40;99.90;;;;;;4989179;28;20517;-76
2022/11/15 11:00:31;;;;;;;24.75;17.60;;;11.50;99.90;;;;;;4980859;28;20050;-76
2022/11/15 11:03:06;;;;;;;24.02;17.45;;;11.80;99.90;;;;;;4988894;28;20548;-76
2022/11/15 11:05:38;;;;;;;23.70;17.52;;;11.80;99.90;;;;;;4989656;28;20386;-75
2022/11/15 11:08:23;;;;;;;26.77;17.15;;;11.80;99.90;;;;;;4987848;28;20046;-74
2022/11/15 11:11:00;;;;;;;19.75;15.75;;;11.60;99.90;;;;;;4971212;28;20058;-75
2022/11/15 11:13:35;;;;;;;23.65;15.45;;;11.80;99.90;;;;;;4986762;28;20445;-75
2022/11/15 11:16:30;;;;;;;19.67;12.90;;;11.70;99.90;;;;;;4987672;28;20485;-75
2022/11/15 11:19:18;;;;;;;14.65;12.82;;;11.70;99.90;;;;;;4988619;28;20042;-76
2022/11/15 11:22:01;;;;;;;17.40;12.30;;;11.80;99.90;;;;;;4992353;28;20440;-75
2022/11/15 11:24:56;;;;;;;17.77;12.07;;;11.80;99.90;;;;;;5008149;28;20042;-75
2022/11/15 11:27:30;;;;;;;19.98;13.90;;;11.90;99.90;;;;;;4991149;28;20085;-75
2022/11/15 11:30:02;;;;;;;14.50;11.10;;;11.90;99.90;;;;;;5007675;28;20045;-75
2022/11/15 11:32:28;;;;;;;16.52;11.10;;;11.80;99.90;;;;;;4990354;28;20400;-75
2022/11/15 11:35:14;;;;;;;17.23;10.07;;;11.90;99.90;;;;;;4989870;28;20068;-75
2022/11/15 11:38:04;;;;;;;12.10;10.23;;;11.90;99.90;;;;;;4989883;28;20136;-76
2022/11/15 11:40:52;;;;;;;13.00;8.85;;;11.90;99.90;;;;;;4974492;28;20073;-75
2022/11/15 11:43:23;;;;;;;16.08;9.88;;;11.90;99.90;;;;;;4989488;28;20049;-76
2022/11/15 11:45:58;;;;;;;11.43;7.88;;;11.90;99.90;;;;;;5007607;28;20056;-75
2022/11/15 11:48:42;;;;;;;15.52;9.13;;;11.80;99.90;;;;;;4990729;28;20046;-75
2022/11/15 11:51:25;;;;;;;10.85;8.05;;;11.90;99.90;;;;;;4989899;28;20406;-75
2022/11/15 11:53:56;;;;;;;11.88;7.85;;;11.80;99.90;;;;;;4970412;28;20058;-77
2022/11/15 11:56:32;;;;;;;11.77;7.95;;;11.90;99.90;;;;;;4987486;28;20435;-76
2022/11/15 11:59:10;;;;;;;10.15;8.77;;;12.00;99.90;;;;;;4987192;28;20049;-76
2022/11/15 12:01:42;;;;;;;12.13;7.80;;;12.00;99.90;;;;;;4970330;28;20050;-76
2022/11/15 12:04:13;;;;;;;12.88;7.15;;;12.00;99.90;;;;;;4970813;28;20129;-76
2022/11/15 12:06:42;;;;;;;9.55;6.40;;;11.90;99.90;;;;;;4970283;28;20054;-76
2022/11/15 12:09:23;;;;;;;9.27;6.45;;;11.90;99.90;;;;;;4989520;28;20077;-75
2022/11/15 12:12:04;;;;;;;9.50;6.63;;;11.90;99.90;;;;;;4987670;28;20064;-76
2022/11/15 12:14:54;;;;;;;8.55;6.28;;;12.00;99.90;;;;;;4969633;28;20370;-74
2022/11/15 12:17:22;;;;;;;;;;;12.10;99.90;;;;;;4970533;28;20046;-76
2022/11/15 12:19:48;;;;;;;10.95;6.65;;;12.00;99.90;;;;;;4987258;28;19925;-75
2022/11/15 12:22:26;;;;;;;7.88;5.25;;;12.30;99.90;;;;;;5002742;28;20361;-76
2022/11/15 12:25:00;;;;;;;13.50;6.45;;;12.30;99.90;;;;;;5006742;28;20160;-75
2022/11/15 12:27:44;;;;;;;13.68;6.53;;;12.30;99.90;;;;;;5005477;28;20522;-76
2022/11/15 12:30:18;;;;;;;9.23;5.70;;;12.40;99.90;;;;;;5006986;28;20381;-76
2022/11/15 12:32:56;;;;;;;9.35;5.30;;;12.20;99.90;;;;;;5007196;28;20448;-76
2022/11/15 12:35:33;;;;;;;7.78;5.38;;;12.10;99.90;;;;;;5005899;28;20073;-75
2022/11/15 12:37:59;;;;;;;7.72;5.28;;;12.10;99.90;;;;;;4988834;28;20377;-76
2022/11/15 12:40:30;;;;;;;7.25;5.50;;;12.20;99.90;;;;;;5007003;28;20041;-75
2022/11/15 12:43:26;;;;;;;8.02;4.90;;;12.30;99.90;;;;;;4988102;28;20046;-76
2022/11/15 12:45:52;;;;;;;5.43;4.32;;;12.50;99.90;;;;;;5005107;28;20049;-75
2022/11/15 12:48:18;;;;;;;13.95;5.35;;;12.40;99.90;;;;;;5006815;28;20473;-75
2022/11/15 12:50:55;;;;;;;9.40;4.65;;;12.50;99.90;;;;;;5006297;28;20177;-75
2022/11/15 12:53:27;;;;;;;7.35;4.28;;;12.70;99.90;;;;;;4990044;28;20559;-75
2022/11/15 12:56:31;;;;;;;5.78;4.03;;;12.80;99.90;;;;;;5006302;28;20050;-75
2022/11/15 12:58:58;;;;;;;5.82;3.08;;;12.90;99.90;;;;;;4944759;29;20644;-75
2022/11/15 13:01:30;;;;;;;6.72;3.20;;;12.90;99.90;;;;;;4978368;28;20057;-74
2022/11/15 13:04:21;;;;;;;5.82;3.55;;;12.70;99.90;;;;;;5006375;28;20049;-77
2022/11/15 13:07:07;;;;;;;6.55;3.33;;;12.70;99.90;;;;;;5006072;28;20062;-75
2022/11/15 13:09:35;;;;;;;6.82;5.10;;;12.70;99.90;;;;;;5006483;28;20034;-74
2022/11/15 13:12:07;;;;;;;7.25;3.10;;;12.70;99.90;;;;;;4987939;28;20054;-75
2022/11/15 13:14:43;;;;;;;8.07;3.42;;;12.60;99.90;;;;;;4988778;28;20054;-75